Flight Briefing for CMB845

Departure Arrival
NAS Sigonella (LICZ)
Click to view FAA NOTAMS
Bahrain International Airport (OBBI)
Click to view FAA NOTAMS
Departure Time Arrival Time
N/A N/A
Aircraft Distance
B757-200SF 1929nm
Departure METAR Arrival METAR
LICZ 181455Z 07013KT CAVOK 18/07 Q1013 RMK SKC VIS MIN 9999 WIND THR28 07013KT WIND THR10 07013KT A2994 BLU OBBI 181600Z 02005KT 350V050 CAVOK 21/10 Q1018 NOSIG
Suggested Route
ERNAM5U ERNAM EMLAR N4 SALUN Q680 DBA UM872 WEJ UL604 KFA M691 LADNA LADNA1


View recent IFR Routes data
Notes
USTRANSCOM CONTRACT FLIGHT

Charts and Procedures

Charts for LICZ
No chart available
Charts for OBBI
No chart available

Windy.com Weather Map